KPIA METAR and TAF | Updated Today

KPIA METAR

General Wayne A. Downing Peoria International Airport

Observation time: 54 min. ago

KPIA 301654Z 28008KT 10SM CLR 10/01 A3013 RMK AO2 SLP206 T01000006

Need help? Read our tutorial on how to read METARs or read the parsed version below.

General Wayne A. Downing Peoria International Airport (KPIA) METAR

  • Weather conditions on Tue, 30 Nov 2021 16:54:00 +0000 (54 min. ago):
  • Present conditions: Dry
  • Clouds: Clear skies
  • Visibility: 16093 meters
  • Wind: 280 degrees at 8 knots
  • Temperature: 10 celsius
  • Dew point: 1 celsius
  • Pressure: 30.13 inHg
  • Remarks: AO2 SLP206 T01000006


Useful to know...

KPIA TAF

General Wayne A. Downing Peoria International Airport

KPIA 301120Z 3012/0112 30006KT P6SM SCT200 FM010700 13004KT P6SM VCSH BKN060
Observation time: 6:28 hr. ago
Need help? Read our tutorial on how to read TAFs or read the parsed version below.

Parsed version of TAF for General Wayne A. Downing Peoria International Airport (KPIA)

  • From 30 November at 12:00 UTC, to day 01 of the month at 12:00 UTC
  • Clouds: Scattered at 6096 meters
  • Wind: 300 degrees at 6
  • From day 1 of the month at 07:00 UTC
  • Clouds: Broken sky at 1829 meters
  • Wind: 130 degrees at 4
  • Other: In the vicinity, showers of

Airports near KPIA